createdAt,value
2023-05-24T00:00:36.102Z,11.60
2023-05-24T00:03:07.151Z,11.50
2023-05-24T00:05:37.743Z,11.40
2023-05-24T00:08:05.994Z,11.40
2023-05-24T00:10:33.961Z,11.30
2023-05-24T00:13:02.076Z,11.30
2023-05-24T00:15:30.016Z,11.30
2023-05-24T00:17:59.494Z,11.20
2023-05-24T00:20:27.729Z,11.10
2023-05-24T00:22:55.777Z,11.10
2023-05-24T00:25:23.746Z,11.10
2023-05-24T00:27:51.983Z,11.00
2023-05-24T00:30:19.952Z,11.00
2023-05-24T00:32:49.101Z,10.90
2023-05-24T00:35:18.819Z,10.80
2023-05-24T00:37:48.261Z,10.90
2023-05-24T00:40:17.275Z,10.80
2023-05-24T00:42:45.431Z,10.80
2023-05-24T00:45:13.772Z,10.70
2023-05-24T00:47:42.919Z,10.70
2023-05-24T00:50:13.020Z,10.70
2023-05-24T00:52:44.146Z,10.70
2023-05-24T00:55:13.280Z,10.60
2023-05-24T00:57:41.964Z,10.50
2023-05-24T01:00:12.562Z,10.50
2023-05-24T01:02:40.955Z,10.50
2023-05-24T01:05:13.597Z,10.40
2023-05-24T01:07:52.680Z,10.40
2023-05-24T01:10:27.871Z,10.30
2023-05-24T01:13:02.785Z,10.30
2023-05-24T01:15:37.684Z,10.30
2023-05-24T01:18:12.631Z,10.20
2023-05-24T01:20:41.964Z,10.20
2023-05-24T01:23:31.115Z,10.20
2023-05-24T01:26:17.531Z,10.10
2023-05-24T01:28:49.779Z,10.00
2023-05-24T01:31:19.969Z,10.00
2023-05-24T01:33:50.820Z,10.00
2023-05-24T01:36:20.986Z,9.90
2023-05-24T01:38:51.932Z,9.90
2023-05-24T01:41:34.946Z,9.90
2023-05-24T01:44:11.249Z,9.80
2023-05-24T01:46:40.262Z,9.80
2023-05-24T01:49:19.101Z,9.70
2023-05-24T01:51:52.417Z,9.70
2023-05-24T01:54:25.102Z,9.70
2023-05-24T01:56:55.161Z,9.60
2023-05-24T01:59:26.688Z,9.60
2023-05-24T02:01:54.995Z,9.50
2023-05-24T02:04:23.211Z,9.50
2023-05-24T02:06:51.458Z,9.50
2023-05-24T02:09:19.533Z,9.50
2023-05-24T02:11:47.923Z,9.40
2023-05-24T02:14:17.239Z,9.40
2023-05-24T02:16:47.023Z,9.30
2023-05-24T02:19:15.560Z,9.30
2023-05-24T02:21:43.751Z,9.30
2023-05-24T02:24:12.696Z,9.20
2023-05-24T02:26:40.780Z,9.20
2023-05-24T02:29:08.846Z,9.20
2023-05-24T02:31:37.228Z,9.10
2023-05-24T02:34:06.507Z,9.10
2023-05-24T02:36:36.392Z,9.00
2023-05-24T02:39:04.969Z,9.00
2023-05-24T02:41:33.256Z,9.00
2023-05-24T02:44:01.192Z,9.00
2023-05-24T02:46:29.450Z,8.90
2023-05-24T02:48:57.375Z,8.90
2023-05-24T02:51:26.793Z,8.90
2023-05-24T02:53:54.805Z,8.80
2023-05-24T02:56:23.761Z,8.80
2023-05-24T02:58:54.128Z,8.80
2023-05-24T03:01:23.337Z,8.70
2023-05-24T03:03:53.903Z,8.70
2023-05-24T03:06:22.347Z,8.70
2023-05-24T03:08:51.764Z,8.60
2023-05-24T03:11:22.531Z,8.70
2023-05-24T03:13:51.310Z,8.60
2023-05-24T03:16:19.981Z,8.50
2023-05-24T03:18:50.545Z,8.50
2023-05-24T03:21:20.705Z,8.50
2023-05-24T03:23:49.025Z,8.40
2023-05-24T03:26:18.791Z,8.40
2023-05-24T03:28:47.521Z,8.30
2023-05-24T03:31:16.767Z,8.40
2023-05-24T03:33:45.026Z,8.30
2023-05-24T03:36:13.290Z,8.30
2023-05-24T03:38:41.254Z,8.30
2023-05-24T03:41:09.633Z,8.30
2023-05-24T03:43:39.239Z,8.20
2023-05-24T03:46:15.490Z,8.20
2023-05-24T03:48:43.710Z,8.20
2023-05-24T03:51:11.777Z,8.20
2023-05-24T03:53:39.730Z,8.20
2023-05-24T03:56:07.976Z,8.20
2023-05-24T03:58:35.961Z,8.10
2023-05-24T04:01:05.347Z,8.20
2023-05-24T04:03:34.388Z,8.20
2023-05-24T04:06:02.454Z,8.20
2023-05-24T04:08:31.997Z,8.20
2023-05-24T04:10:59.964Z,8.30
2023-05-24T04:13:28.114Z,8.30
2023-05-24T04:15:56.008Z,8.30
2023-05-24T04:18:25.760Z,8.30
2023-05-24T04:20:56.093Z,8.40
2023-05-24T04:23:24.680Z,8.40
2023-05-24T04:25:52.795Z,8.40
2023-05-24T04:28:22.118Z,8.50
2023-05-24T04:30:50.265Z,8.50
2023-05-24T04:33:19.529Z,8.50
2023-05-24T04:35:49.388Z,8.60
2023-05-24T04:38:17.692Z,8.60
2023-05-24T04:40:45.681Z,8.70
2023-05-24T04:43:14.667Z,8.70
2023-05-24T04:45:42.816Z,8.80
2023-05-24T04:48:11.291Z,8.80
2023-05-24T04:50:39.272Z,8.90
2023-05-24T04:53:08.759Z,8.90
2023-05-24T04:55:36.849Z,8.90
2023-05-24T04:58:04.947Z,9.00
2023-05-24T05:00:32.888Z,9.10
2023-05-24T05:03:01.204Z,9.10
2023-05-24T05:05:29.283Z,9.20
2023-05-24T05:07:57.485Z,9.20
2023-05-24T05:10:27.131Z,9.40
2023-05-24T05:12:55.543Z,9.40
2023-05-24T05:15:25.090Z,9.50
2023-05-24T05:17:53.166Z,9.60
2023-05-24T05:20:21.286Z,9.60
2023-05-24T05:22:49.528Z,9.70
2023-05-24T05:25:17.895Z,9.70
2023-05-24T05:27:47.475Z,9.80
2023-05-24T05:30:15.956Z,9.90
2023-05-24T05:32:44.368Z,10.00
2023-05-24T05:35:12.354Z,10.10
2023-05-24T05:37:40.590Z,10.20
2023-05-24T05:40:09.256Z,10.20
2023-05-24T05:42:37.199Z,10.30
2023-05-24T05:45:07.794Z,10.40
2023-05-24T05:47:35.976Z,10.40
2023-05-24T05:50:04.009Z,10.50
2023-05-24T05:52:31.880Z,10.50
2023-05-24T05:55:00.381Z,10.60
2023-05-24T05:57:28.412Z,10.60
2023-05-24T05:59:56.544Z,10.70
2023-05-24T06:02:25.970Z,10.80
2023-05-24T06:04:54.346Z,10.80
2023-05-24T06:07:22.352Z,10.90
2023-05-24T06:09:50.553Z,11.00
2023-05-24T06:12:18.515Z,11.10
2023-05-24T06:14:48.462Z,11.10
2023-05-24T06:17:16.599Z,11.20
2023-05-24T06:19:46.325Z,11.20
2023-05-24T06:22:14.596Z,11.20
2023-05-24T06:24:43.789Z,11.30
2023-05-24T06:27:11.795Z,11.30
2023-05-24T06:29:40.183Z,11.30
2023-05-24T06:32:08.222Z,11.40
2023-05-24T06:34:36.661Z,11.40
2023-05-24T06:37:06.167Z,11.40
2023-05-24T06:39:34.121Z,11.40
2023-05-24T06:42:02.312Z,11.50
2023-05-24T06:44:37.319Z,11.50
2023-05-24T06:47:06.032Z,11.60
2023-05-24T06:49:34.551Z,11.60
2023-05-24T06:52:02.611Z,11.70
2023-05-24T06:54:32.135Z,11.80
2023-05-24T06:57:00.144Z,11.90
2023-05-24T06:59:28.406Z,11.90
2023-05-24T07:01:58.915Z,12.00
2023-05-24T07:04:28.438Z,12.10
2023-05-24T07:06:57.164Z,12.10
2023-05-24T07:09:25.156Z,12.20
2023-05-24T07:11:54.624Z,12.30
2023-05-24T07:14:23.156Z,12.40
2023-05-24T07:16:51.382Z,12.60
2023-05-24T07:19:21.347Z,12.60
2023-05-24T07:21:50.502Z,12.80
2023-05-24T07:24:18.754Z,12.90
2023-05-24T07:26:47.274Z,13.10
2023-05-24T07:29:16.793Z,13.30
2023-05-24T07:31:44.834Z,13.40
2023-05-24T07:34:12.835Z,13.50
2023-05-24T07:36:41.124Z,13.70
2023-05-24T07:39:10.049Z,13.80
2023-05-24T07:41:38.261Z,13.90
2023-05-24T07:44:06.351Z,14.00
2023-05-24T07:46:35.924Z,14.10
2023-05-24T07:49:03.785Z,14.20
2023-05-24T07:51:32.542Z,14.30
2023-05-24T07:54:00.936Z,14.40
2023-05-24T07:56:29.191Z,14.50
2023-05-24T07:59:03.548Z,14.50
2023-05-24T08:01:32.108Z,14.60
2023-05-24T08:04:01.707Z,14.70
2023-05-24T08:06:29.751Z,14.70
2023-05-24T08:08:58.033Z,14.80
2023-05-24T08:11:26.610Z,14.80
2023-05-24T08:13:54.690Z,14.90
2023-05-24T08:16:22.913Z,15.00
2023-05-24T08:18:52.595Z,15.00
2023-05-24T08:21:24.313Z,15.10
2023-05-24T08:23:52.362Z,15.20
2023-05-24T08:26:21.092Z,15.30
2023-05-24T08:28:49.093Z,15.40
2023-05-24T08:31:18.028Z,15.50
2023-05-24T08:33:50.223Z,15.50
2023-05-24T08:36:18.588Z,15.60
2023-05-24T08:38:47.884Z,15.70
2023-05-24T08:41:15.929Z,15.70
2023-05-24T08:43:44.646Z,15.80
2023-05-24T08:46:15.338Z,15.90
2023-05-24T08:48:47.348Z,15.90
2023-05-24T08:51:16.439Z,16.00
2023-05-24T08:53:50.078Z,16.10
2023-05-24T08:56:19.198Z,16.30
2023-05-24T08:58:47.664Z,16.50
2023-05-24T09:01:17.792Z,16.60
2023-05-24T09:03:48.044Z,16.80
2023-05-24T09:06:18.927Z,17.00
2023-05-24T09:08:52.335Z,17.20
2023-05-24T09:11:22.882Z,17.50
2023-05-24T09:13:50.940Z,17.70
2023-05-24T09:16:19.237Z,17.80
2023-05-24T09:18:47.358Z,17.80
2023-05-24T09:21:15.668Z,17.90
2023-05-24T09:23:44.039Z,18.10
2023-05-24T09:26:14.121Z,18.20
2023-05-24T09:28:44.337Z,18.30
2023-05-24T09:31:13.766Z,18.40
2023-05-24T09:33:41.787Z,18.50
2023-05-24T09:36:10.572Z,18.50
2023-05-24T09:38:38.612Z,18.60
2023-05-24T09:41:08.446Z,18.60
2023-05-24T09:43:49.423Z,18.60
2023-05-24T09:46:18.696Z,18.60
2023-05-24T09:48:57.537Z,18.60
2023-05-24T09:51:26.008Z,18.60
2023-05-24T09:53:58.477Z,18.70
2023-05-24T09:56:27.554Z,18.90
2023-05-24T09:58:58.178Z,19.10
2023-05-24T10:01:26.939Z,19.30
2023-05-24T10:03:56.499Z,19.40
2023-05-24T10:06:25.607Z,19.50
2023-05-24T10:08:54.799Z,19.50
2023-05-24T10:11:22.911Z,19.60
2023-05-24T10:13:51.106Z,19.60
2023-05-24T10:16:20.431Z,19.50
2023-05-24T10:18:48.592Z,19.50
2023-05-24T10:21:17.029Z,19.50
2023-05-24T10:23:49.957Z,19.40
2023-05-24T10:26:18.778Z,19.40
2023-05-24T10:28:53.021Z,19.30
2023-05-24T10:31:26.574Z,19.20
2023-05-24T10:34:06.568Z,19.20
2023-05-24T10:36:36.837Z,19.20
2023-05-24T10:39:06.063Z,19.10
2023-05-24T10:41:40.866Z,19.20
2023-05-24T10:44:13.114Z,19.20
2023-05-24T10:47:08.265Z,19.40
2023-05-24T10:49:36.810Z,19.60
2023-05-24T10:52:09.332Z,19.80
2023-05-24T10:54:39.802Z,20.00
2023-05-24T10:57:10.961Z,20.20
2023-05-24T10:59:40.233Z,20.30
2023-05-24T11:02:14.034Z,20.30
2023-05-24T11:04:44.427Z,20.30
2023-05-24T11:07:15.430Z,20.40
2023-05-24T11:09:47.084Z,20.70
2023-05-24T11:12:18.444Z,21.20
2023-05-24T11:14:50.337Z,21.70
2023-05-24T11:17:21.510Z,22.30
2023-05-24T11:19:52.860Z,22.90
2023-05-24T11:22:22.881Z,23.40
2023-05-24T11:24:52.966Z,23.70
2023-05-24T11:27:21.632Z,23.80
2023-05-24T11:29:49.983Z,23.70
2023-05-24T11:32:21.070Z,23.60
2023-05-24T11:34:49.790Z,23.40
2023-05-24T11:37:18.830Z,23.10
2023-05-24T11:39:53.074Z,22.90
2023-05-24T11:42:22.857Z,22.50
2023-05-24T11:44:51.435Z,22.20
2023-05-24T11:47:22.434Z,22.00
2023-05-24T11:49:51.913Z,21.60
2023-05-24T11:52:19.903Z,21.40
2023-05-24T11:54:48.034Z,21.20
2023-05-24T11:57:16.796Z,21.00
2023-05-24T11:59:47.255Z,20.80
2023-05-24T12:02:15.921Z,20.70
2023-05-24T12:04:46.151Z,20.50
2023-05-24T12:07:14.296Z,20.50
2023-05-24T12:09:42.346Z,20.40
2023-05-24T12:12:10.927Z,20.40
2023-05-24T12:14:41.056Z,20.40
2023-05-24T12:17:16.996Z,20.50
2023-05-24T12:19:49.631Z,20.60
2023-05-24T12:22:17.720Z,20.70
2023-05-24T12:24:45.763Z,20.80
2023-05-24T12:27:13.801Z,20.90
2023-05-24T12:29:42.626Z,20.90
2023-05-24T12:32:13.999Z,20.90
2023-05-24T12:34:43.458Z,20.90
2023-05-24T12:37:14.196Z,20.80
2023-05-24T12:39:44.162Z,20.60
2023-05-24T12:42:14.250Z,20.50
2023-05-24T12:44:44.879Z,20.30
2023-05-24T12:47:14.093Z,20.10
2023-05-24T12:49:43.373Z,20.00
2023-05-24T12:52:13.510Z,19.80
2023-05-24T12:54:41.606Z,19.60
2023-05-24T12:57:09.569Z,19.50
2023-05-24T12:59:37.664Z,19.30
2023-05-24T13:02:05.791Z,19.20
2023-05-24T13:04:35.971Z,19.00
2023-05-24T13:07:04.213Z,19.00
2023-05-24T13:09:34.230Z,18.90
2023-05-24T13:12:02.942Z,18.80
2023-05-24T13:14:31.011Z,18.80
2023-05-24T13:16:59.282Z,18.80
2023-05-24T13:19:27.265Z,18.80
2023-05-24T13:21:55.563Z,18.80
2023-05-24T13:24:23.479Z,18.90
2023-05-24T13:26:54.925Z,19.00
2023-05-24T13:31:54.543Z,19.10
2023-05-24T13:34:23.217Z,19.20
2023-05-24T13:36:51.507Z,19.40
2023-05-24T13:39:19.706Z,19.60
2023-05-24T13:41:48.303Z,19.80
2023-05-24T13:44:17.927Z,20.00
2023-05-24T13:46:46.215Z,20.30
2023-05-24T13:49:14.456Z,20.50
2023-05-24T13:51:42.508Z,20.80
2023-05-24T13:54:11.521Z,21.00
2023-05-24T13:56:40.219Z,21.20
2023-05-24T13:59:08.479Z,21.40
2023-05-24T14:01:38.679Z,21.50
2023-05-24T14:04:07.826Z,21.70
2023-05-24T14:06:37.469Z,21.70
2023-05-24T14:09:06.959Z,21.80
2023-05-24T14:11:35.134Z,21.80
2023-05-24T14:16:35.117Z,22.00
2023-05-24T14:19:04.504Z,22.10
2023-05-24T14:21:32.894Z,22.10
2023-05-24T14:24:01.352Z,22.20
2023-05-24T14:26:29.350Z,22.20
2023-05-24T14:28:57.554Z,22.20
2023-05-24T14:31:25.682Z,22.20
2023-05-24T14:33:53.738Z,22.20
2023-05-24T14:36:23.066Z,22.20
2023-05-24T14:38:51.776Z,22.20
2023-05-24T14:41:19.742Z,22.20
2023-05-24T14:43:47.701Z,22.10
2023-05-24T14:46:15.973Z,22.20
2023-05-24T14:48:44.078Z,22.20
2023-05-24T14:51:12.066Z,22.30
2023-05-24T14:53:41.435Z,22.20
2023-05-24T14:56:10.150Z,22.20
2023-05-24T14:58:38.277Z,22.20
2023-05-24T15:01:08.228Z,22.20
2023-05-24T15:03:36.701Z,22.10
2023-05-24T15:06:06.223Z,22.10
2023-05-24T15:08:35.201Z,22.00
2023-05-24T15:11:05.134Z,21.90
2023-05-24T15:13:33.690Z,21.80
2023-05-24T15:16:01.717Z,21.70
2023-05-24T15:18:32.112Z,21.70
2023-05-24T15:21:00.880Z,21.60
2023-05-24T15:23:29.039Z,21.40
2023-05-24T15:25:57.151Z,21.40
2023-05-24T15:28:27.167Z,21.30
2023-05-24T15:30:55.931Z,21.10
2023-05-24T15:33:23.990Z,21.10
2023-05-24T15:35:52.256Z,21.00
2023-05-24T15:38:20.776Z,21.00
2023-05-24T15:40:48.765Z,20.90
2023-05-24T15:43:18.794Z,20.90
2023-05-24T15:45:48.606Z,20.80
2023-05-24T15:48:16.940Z,20.70
2023-05-24T15:51:16.497Z,20.70
2023-05-24T15:53:33.604Z,20.60
2023-05-24T15:56:01.776Z,20.50
2023-05-24T15:58:29.872Z,20.40
2023-05-24T16:00:59.377Z,20.30
2023-05-24T16:03:27.563Z,20.10
2023-05-24T16:05:55.969Z,20.00
2023-05-24T16:08:27.665Z,19.90
2023-05-24T16:10:56.265Z,19.90
2023-05-24T16:13:24.260Z,19.70
2023-05-24T16:15:52.547Z,19.70
2023-05-24T16:18:23.206Z,19.60
2023-05-24T16:20:52.453Z,19.50
2023-05-24T16:23:23.189Z,19.50
2023-05-24T16:25:51.698Z,19.40
2023-05-24T16:28:23.650Z,19.30
2023-05-24T16:30:55.474Z,19.30
2023-05-24T16:33:25.330Z,19.20
2023-05-24T16:35:56.173Z,19.10
2023-05-24T16:38:24.789Z,19.10
2023-05-24T16:40:53.032Z,19.00
2023-05-24T16:43:21.465Z,19.00
2023-05-24T16:45:49.954Z,18.90
2023-05-24T16:48:21.114Z,18.80
2023-05-24T16:50:54.079Z,18.80
2023-05-24T16:53:23.166Z,18.70
2023-05-24T16:55:53.825Z,18.70
2023-05-24T16:58:22.279Z,18.70
2023-05-24T17:00:50.995Z,18.60
2023-05-24T17:03:21.907Z,18.60
2023-05-24T17:05:53.291Z,18.60
2023-05-24T17:08:21.841Z,18.50
2023-05-24T17:10:56.029Z,18.50
2023-05-24T17:13:24.489Z,18.50
2023-05-24T17:15:53.641Z,18.50
2023-05-24T17:18:28.027Z,18.40
2023-05-24T17:20:58.382Z,18.40
2023-05-24T17:23:26.866Z,18.30
2023-05-24T17:25:55.540Z,18.30
2023-05-24T17:28:27.525Z,18.20
2023-05-24T17:30:55.969Z,18.20
2023-05-24T17:33:24.872Z,18.20
2023-05-24T17:35:53.749Z,18.20
2023-05-24T17:38:24.236Z,18.10
2023-05-24T17:40:57.190Z,18.20
2023-05-24T17:43:29.042Z,18.10
2023-05-24T17:46:03.050Z,18.00
2023-05-24T17:48:32.236Z,18.00
2023-05-24T17:51:00.791Z,18.00
2023-05-24T17:53:32.298Z,17.90
2023-05-24T17:56:00.788Z,17.90
2023-05-24T17:58:30.686Z,17.90
2023-05-24T18:00:59.006Z,17.90
2023-05-24T18:03:26.993Z,17.80
2023-05-24T18:05:55.058Z,17.80
2023-05-24T18:08:23.097Z,17.90
2023-05-24T18:10:52.640Z,17.90
2023-05-24T18:13:20.572Z,17.90
2023-05-24T18:15:48.873Z,18.00
2023-05-24T18:18:17.407Z,18.00
2023-05-24T18:20:45.475Z,18.10
2023-05-24T18:23:13.600Z,18.10
2023-05-24T18:25:43.643Z,18.20
2023-05-24T18:28:13.651Z,18.20
2023-05-24T18:30:43.674Z,18.20
2023-05-24T18:33:12.277Z,18.20
2023-05-24T18:35:40.377Z,18.20
2023-05-24T18:38:08.424Z,18.10
2023-05-24T18:40:38.313Z,18.10
2023-05-24T18:43:06.324Z,18.00
2023-05-24T18:45:35.769Z,17.90
2023-05-24T18:48:03.813Z,17.80
2023-05-24T18:50:31.975Z,17.80
2023-05-24T18:53:00.036Z,17.80
2023-05-24T18:55:28.139Z,17.60
2023-05-24T18:57:56.198Z,17.50
2023-05-24T19:00:24.735Z,17.50
2023-05-24T19:02:55.385Z,17.40
2023-05-24T19:05:23.574Z,17.30
2023-05-24T19:07:51.860Z,17.20
2023-05-24T19:10:19.833Z,17.10
2023-05-24T19:12:47.753Z,17.00
2023-05-24T19:15:15.997Z,16.90
2023-05-24T19:17:44.117Z,16.80
2023-05-24T19:20:13.751Z,16.70
2023-05-24T19:22:42.027Z,16.60
2023-05-24T19:25:10.623Z,16.50
2023-05-24T19:27:44.778Z,16.40
2023-05-24T19:30:23.195Z,16.30
2023-05-24T19:32:51.158Z,16.10
2023-05-24T19:35:21.411Z,16.10
2023-05-24T19:37:49.435Z,16.00
2023-05-24T19:40:17.670Z,15.90
2023-05-24T19:42:45.648Z,15.80
2023-05-24T19:45:14.265Z,15.70
2023-05-24T19:47:42.330Z,15.70
2023-05-24T19:50:11.472Z,15.60
2023-05-24T19:52:40.961Z,15.50
2023-05-24T19:55:10.527Z,15.40
2023-05-24T19:57:38.779Z,15.30
2023-05-24T20:00:08.110Z,15.30
2023-05-24T20:02:42.085Z,15.20
2023-05-24T20:05:11.248Z,15.10
2023-05-24T20:07:40.612Z,15.00
2023-05-24T20:10:09.922Z,14.90
2023-05-24T20:12:37.933Z,14.80
2023-05-24T20:15:09.671Z,14.80
2023-05-24T20:17:37.717Z,14.70
2023-05-24T20:20:07.086Z,14.60
2023-05-24T20:22:35.201Z,14.50
2023-05-24T20:25:05.042Z,14.40
2023-05-24T20:27:32.949Z,14.30
2023-05-24T20:30:01.169Z,14.30
2023-05-24T20:32:29.216Z,14.20
2023-05-24T20:34:57.328Z,14.10
2023-05-24T20:37:25.390Z,14.00
2023-05-24T20:39:53.298Z,13.90
2023-05-24T20:42:22.782Z,13.80
2023-05-24T20:44:51.296Z,13.80
2023-05-24T20:47:19.540Z,13.70
2023-05-24T20:49:47.579Z,13.60
2023-05-24T20:52:16.284Z,13.60
2023-05-24T20:54:44.308Z,13.50
2023-05-24T20:57:12.328Z,13.50
2023-05-24T20:59:42.002Z,13.40
2023-05-24T21:02:09.987Z,13.40
2023-05-24T21:04:38.057Z,13.30
2023-05-24T21:07:07.804Z,13.30
2023-05-24T21:09:36.202Z,13.20
2023-05-24T21:12:04.307Z,13.20
2023-05-24T21:14:32.379Z,13.10
2023-05-24T21:17:01.669Z,13.00
2023-05-24T21:19:29.748Z,13.00
2023-05-24T21:21:57.608Z,13.00
2023-05-24T21:24:25.541Z,12.90
2023-05-24T21:26:53.533Z,12.80
2023-05-24T21:29:21.622Z,12.80
2023-05-24T21:31:49.654Z,12.80
2023-05-24T21:34:19.208Z,12.70
2023-05-24T21:36:47.331Z,12.60
2023-05-24T21:39:15.251Z,12.60
2023-05-24T21:41:43.202Z,12.50
2023-05-24T21:44:11.294Z,12.50
2023-05-24T21:46:39.262Z,12.40
2023-05-24T21:49:07.242Z,12.40
2023-05-24T21:51:36.764Z,12.30
2023-05-24T21:54:05.365Z,12.30
2023-05-24T21:56:33.307Z,12.30
2023-05-24T21:59:01.296Z,12.20
2023-05-24T22:01:29.300Z,12.20
2023-05-24T22:03:57.695Z,12.10
2023-05-24T22:06:25.793Z,12.10
2023-05-24T22:08:55.696Z,12.00
2023-05-24T22:11:23.625Z,12.00
2023-05-24T22:13:52.109Z,12.00
2023-05-24T22:16:20.156Z,11.90
2023-05-24T22:18:48.909Z,11.90
2023-05-24T22:21:18.647Z,11.80
2023-05-24T22:23:46.692Z,11.80
2023-05-24T22:26:17.049Z,11.80
2023-05-24T22:28:52.137Z,11.70
2023-05-24T22:31:21.636Z,11.70
2023-05-24T22:33:49.804Z,11.60
2023-05-24T22:36:18.773Z,11.60
2023-05-24T22:38:46.731Z,11.60
2023-05-24T22:41:16.349Z,11.50
2023-05-24T22:43:44.519Z,11.50
2023-05-24T22:46:12.806Z,11.40
2023-05-24T22:48:41.077Z,11.40
2023-05-24T22:51:09.262Z,11.40
2023-05-24T22:53:39.462Z,11.30
2023-05-24T22:56:10.345Z,11.30
2023-05-24T22:58:40.003Z,11.20
2023-05-24T23:01:07.995Z,11.20
2023-05-24T23:03:36.467Z,11.20
2023-05-24T23:06:05.493Z,11.20
2023-05-24T23:08:34.486Z,11.10
2023-05-24T23:11:10.255Z,11.10
2023-05-24T23:13:42.113Z,11.00
2023-05-24T23:16:10.261Z,11.00
2023-05-24T23:18:42.811Z,11.00
2023-05-24T23:21:11.171Z,10.90
2023-05-24T23:23:39.110Z,11.00
2023-05-24T23:26:07.415Z,10.90
2023-05-24T23:28:35.550Z,10.80
2023-05-24T23:31:05.146Z,10.80
2023-05-24T23:33:33.107Z,10.70
2023-05-24T23:36:01.343Z,10.70
2023-05-24T23:38:29.387Z,10.70
2023-05-24T23:40:57.357Z,10.60
2023-05-24T23:43:25.402Z,10.60
2023-05-24T23:45:53.276Z,10.50
2023-05-24T23:48:23.968Z,10.50
2023-05-24T23:50:54.578Z,10.40
2023-05-24T23:53:23.233Z,10.40
2023-05-24T23:55:51.124Z,10.40
2023-05-24T23:58:19.088Z,10.40
